KMHE/MHE METAR and TAF weather

Enter ICAO airport designator
Station Type Date Time Source
KMHE METAR 2019/02/16 06:53 UTC NOAA

KMHE 160653Z AUTO 11005KT 10SM OVC080 M14/M17 A3013 RMK AO2 SLP233 T11391172


Station Type Date Time Source
KMHE Decoded METAR 2019/02/16 06:53 UTC NOAA

MITCHELL MUNICIPAL AIRPORT, SD, United States (KMHE) 43-46N 98-02W
Feb 16, 2019 - 01:53 AM EST / 2019.02.16 0653 UTC
Wind: from the ESE (110 degrees) at 6 MPH (5 KT):0
Visibility: 10 mile(s):0
Sky conditions: overcast
Temperature: 7.0 F (-13.9 C)
Windchill: -4 F (-20 C):1
Dew Point: 1.0 F (-17.2 C)
Relative Humidity: 76%
Pressure (altimeter): 30.13 in. Hg (1020 hPa)
ob: KMHE 160653Z AUTO 11005KT 10SM OVC080 M14/M17 A3013 RMK AO2 SLP233 T11391172
cycle: 7

Station Type Date Time Source
KMHE TAF UTC NOAA

Error!


Example: see airport list